createdAt,value
2018-02-11T00:00:42.113Z,999.37
2018-02-11T00:01:42.093Z,999.43
2018-02-11T00:02:42.068Z,999.34
2018-02-11T00:03:42.047Z,999.29
2018-02-11T00:04:42.020Z,999.26
2018-02-11T00:05:41.998Z,999.28
2018-02-11T00:06:41.975Z,999.25
2018-02-11T00:07:41.954Z,999.25
2018-02-11T00:08:41.929Z,999.25
2018-02-11T00:09:41.908Z,999.18
2018-02-11T00:10:41.883Z,999.2
2018-02-11T00:11:41.858Z,999.17
2018-02-11T00:12:41.839Z,999.14
2018-02-11T00:13:41.813Z,999.13
2018-02-11T00:14:41.795Z,999.12
2018-02-11T00:15:41.768Z,999.04
2018-02-11T00:16:41.742Z,999.12
2018-02-11T00:17:41.720Z,999.06
2018-02-11T00:18:41.698Z,999.07
2018-02-11T00:19:41.674Z,999.03
2018-02-11T00:20:41.652Z,998.98
2018-02-11T00:21:41.629Z,998.98
2018-02-11T00:22:41.605Z,998.95
2018-02-11T00:23:41.581Z,998.93
2018-02-11T00:24:41.559Z,998.86
2018-02-11T00:25:41.536Z,998.86
2018-02-11T00:26:41.510Z,998.76
2018-02-11T00:27:41.491Z,998.79
2018-02-11T00:28:41.465Z,998.77
2018-02-11T00:29:41.444Z,998.78
2018-02-11T00:30:41.420Z,998.8
2018-02-11T00:31:41.397Z,998.73
2018-02-11T00:32:41.374Z,998.73
2018-02-11T00:33:41.351Z,998.72
2018-02-11T00:34:41.328Z,998.65
2018-02-11T00:35:41.305Z,998.66
2018-02-11T00:36:41.282Z,998.63
2018-02-11T00:37:41.262Z,998.62
2018-02-11T00:38:41.238Z,998.62
2018-02-11T00:39:41.216Z,998.57
2018-02-11T00:40:41.189Z,998.59
2018-02-11T00:41:41.166Z,998.59
2018-02-11T00:42:41.144Z,998.53
2018-02-11T00:43:41.120Z,998.47
2018-02-11T00:44:41.098Z,998.52
2018-02-11T00:45:41.075Z,998.51
2018-02-11T00:46:41.051Z,998.46
2018-02-11T00:47:41.028Z,998.47
2018-02-11T00:48:41.005Z,998.46
2018-02-11T00:49:40.982Z,998.41
2018-02-11T00:50:40.959Z,998.35
2018-02-11T00:51:40.936Z,998.43
2018-02-11T00:52:40.913Z,998.4
2018-02-11T00:53:40.889Z,998.37
2018-02-11T00:54:40.867Z,998.31
2018-02-11T00:55:40.877Z,998.26
2018-02-11T00:56:40.820Z,998.29
2018-02-11T00:57:40.798Z,998.25
2018-02-11T00:58:40.776Z,998.19
2018-02-11T00:59:40.750Z,998.2
2018-02-11T01:00:40.729Z,998.23
2018-02-11T01:01:40.704Z,998.22
2018-02-11T01:02:40.682Z,998.17
2018-02-11T01:03:40.659Z,998.2
2018-02-11T01:04:40.635Z,998.14
2018-02-11T01:05:40.613Z,998.14
2018-02-11T01:06:40.590Z,998.07
2018-02-11T01:07:40.567Z,998.08
2018-02-11T01:08:40.546Z,998.08
2018-02-11T01:09:40.521Z,998.15
2018-02-11T01:10:40.497Z,998.04
2018-02-11T01:11:40.474Z,998.09
2018-02-11T01:12:40.656Z,998.05
2018-02-11T01:13:40.429Z,998.06
2018-02-11T01:14:40.405Z,997.95
2018-02-11T01:15:40.388Z,997.9
2018-02-11T01:16:40.359Z,997.94
2018-02-11T01:17:40.336Z,997.89
2018-02-11T01:18:40.314Z,997.82
2018-02-11T01:19:40.291Z,997.86
2018-02-11T01:20:40.270Z,997.88
2018-02-11T01:21:40.245Z,997.9
2018-02-11T01:22:40.221Z,997.8
2018-02-11T01:23:40.199Z,997.75
2018-02-11T01:24:40.279Z,997.7
2018-02-11T01:25:40.151Z,997.68
2018-02-11T01:26:40.133Z,997.7
2018-02-11T01:27:40.106Z,997.63
2018-02-11T01:28:40.082Z,997.59
2018-02-11T01:29:40.060Z,997.62
2018-02-11T01:30:40.039Z,997.65
2018-02-11T01:31:40.016Z,997.63
2018-02-11T01:32:39.988Z,997.59
2018-02-11T01:33:39.967Z,997.58
2018-02-11T01:34:39.944Z,997.58
2018-02-11T01:35:39.920Z,997.51
2018-02-11T01:36:39.898Z,997.5
2018-02-11T01:37:39.873Z,997.45
2018-02-11T01:38:39.857Z,997.44
2018-02-11T01:39:39.833Z,997.39
2018-02-11T01:40:39.802Z,997.42
2018-02-11T01:41:39.779Z,997.31
2018-02-11T01:42:39.757Z,997.28
2018-02-11T01:43:39.731Z,997.23
2018-02-11T01:44:39.706Z,997.31
2018-02-11T01:45:39.684Z,997.19
2018-02-11T01:46:39.660Z,997.16
2018-02-11T01:47:39.638Z,997.13
2018-02-11T01:48:39.612Z,997.13
2018-02-11T01:49:39.588Z,997.1
2018-02-11T01:50:39.564Z,996.99
2018-02-11T01:51:39.542Z,997.04
2018-02-11T01:52:39.517Z,996.95
2018-02-11T01:53:39.493Z,996.97
2018-02-11T01:54:39.472Z,996.98
2018-02-11T01:55:39.446Z,996.9
2018-02-11T01:56:39.419Z,996.9
2018-02-11T01:57:39.396Z,996.89
2018-02-11T01:58:39.372Z,996.88
2018-02-11T01:59:39.347Z,996.84
2018-02-11T02:00:39.325Z,996.84
2018-02-11T02:01:39.300Z,996.83
2018-02-11T02:02:39.277Z,996.74
2018-02-11T02:03:39.253Z,996.78
2018-02-11T02:04:39.229Z,996.7
2018-02-11T02:05:39.254Z,996.63
2018-02-11T02:06:39.181Z,996.78
2018-02-11T02:07:39.156Z,996.49
2018-02-11T02:08:39.132Z,996.53
2018-02-11T02:09:39.108Z,996.49
2018-02-11T02:10:39.084Z,996.45
2018-02-11T02:11:39.062Z,996.39
2018-02-11T02:12:39.038Z,996.36
2018-02-11T02:13:39.014Z,996.22
2018-02-11T02:14:38.995Z,996.23
2018-02-11T02:15:38.966Z,996.23
2018-02-11T02:16:38.945Z,996.22
2018-02-11T02:17:38.919Z,996.24
2018-02-11T02:18:38.895Z,996.16
2018-02-11T02:19:38.873Z,996.14
2018-02-11T02:20:38.847Z,996.13
2018-02-11T02:21:38.823Z,996.05
2018-02-11T02:22:38.799Z,996.01
2018-02-11T02:23:38.774Z,995.95
2018-02-11T02:24:38.751Z,995.95
2018-02-11T02:25:38.730Z,995.98
2018-02-11T02:26:38.706Z,995.98
2018-02-11T02:27:38.679Z,996
2018-02-11T02:28:38.657Z,995.9
2018-02-11T02:29:38.632Z,995.82
2018-02-11T02:30:38.610Z,995.84
2018-02-11T02:31:38.586Z,995.8
2018-02-11T02:32:38.560Z,995.82
2018-02-11T02:33:38.537Z,995.79
2018-02-11T02:34:38.516Z,995.73
2018-02-11T02:35:38.488Z,995.71
2018-02-11T02:36:38.466Z,995.7
2018-02-11T02:37:38.447Z,995.67
2018-02-11T02:38:38.416Z,995.59
2018-02-11T02:39:38.396Z,995.59
2018-02-11T02:40:38.376Z,995.55
2018-02-11T02:41:38.345Z,995.53
2018-02-11T02:42:38.322Z,995.48
2018-02-11T02:43:38.299Z,995.4
2018-02-11T02:44:38.274Z,995.34
2018-02-11T02:45:38.253Z,995.36
2018-02-11T02:46:38.228Z,995.18
2018-02-11T02:47:38.201Z,995.17
2018-02-11T02:48:38.179Z,995.12
2018-02-11T02:49:38.153Z,995.07
2018-02-11T02:50:38.129Z,995.02
2018-02-11T02:51:38.105Z,995.01
2018-02-11T02:52:38.081Z,994.95
2018-02-11T02:53:38.123Z,994.91
2018-02-11T02:54:38.033Z,994.89
2018-02-11T02:55:38.011Z,994.93
2018-02-11T02:56:37.987Z,994.88
2018-02-11T02:57:37.961Z,994.88
2018-02-11T02:58:37.939Z,994.71
2018-02-11T02:59:37.917Z,994.66
2018-02-11T03:00:37.896Z,994.61
2018-02-11T03:01:37.866Z,994.55
2018-02-11T03:02:37.843Z,994.61
2018-02-11T03:03:37.817Z,994.53
2018-02-11T03:04:37.794Z,994.53
2018-02-11T03:05:37.770Z,994.43
2018-02-11T03:06:37.747Z,994.35
2018-02-11T03:07:37.722Z,994.32
2018-02-11T03:08:37.699Z,994.33
2018-02-11T03:09:37.675Z,994.21
2018-02-11T03:10:37.653Z,994.18
2018-02-11T03:11:37.628Z,994.15
2018-02-11T03:12:37.808Z,994.07
2018-02-11T03:13:37.581Z,994.06
2018-02-11T03:14:37.556Z,993.98
2018-02-11T03:15:37.532Z,993.92
2018-02-11T03:16:37.509Z,993.88
2018-02-11T03:17:37.487Z,993.85
2018-02-11T03:18:37.466Z,993.83
2018-02-11T03:19:37.438Z,993.82
2018-02-11T03:20:37.414Z,993.78
2018-02-11T03:21:37.391Z,993.74
2018-02-11T03:22:37.370Z,993.72
2018-02-11T03:23:37.343Z,993.72
2018-02-11T03:24:37.324Z,993.68
2018-02-11T03:25:37.296Z,993.59
2018-02-11T03:26:37.273Z,993.51
2018-02-11T03:27:37.300Z,993.51
2018-02-11T03:28:37.230Z,993.57
2018-02-11T03:29:37.203Z,993.49
2018-02-11T03:30:37.177Z,993.35
2018-02-11T03:31:37.155Z,993.39
2018-02-11T03:32:37.130Z,993.36
2018-02-11T03:33:37.106Z,993.31
2018-02-11T03:34:37.084Z,993.35
2018-02-11T03:35:37.061Z,993.23
2018-02-11T03:36:37.036Z,993.29
2018-02-11T03:37:37.012Z,993.27
2018-02-11T03:38:36.990Z,993.25
2018-02-11T03:39:36.964Z,993.18
2018-02-11T03:40:36.940Z,993.18
2018-02-11T03:41:36.916Z,993.16
2018-02-11T03:42:36.895Z,993.28
2018-02-11T03:43:36.870Z,993.19
2018-02-11T03:44:36.854Z,993.11
2018-02-11T03:45:36.827Z,993.07
2018-02-11T03:46:36.800Z,992.99
2018-02-11T03:47:36.775Z,993.04
2018-02-11T03:48:36.752Z,992.97
2018-02-11T03:49:36.732Z,992.96
2018-02-11T03:50:36.707Z,992.91
2018-02-11T03:51:36.683Z,992.91
2018-02-11T03:52:36.659Z,992.84
2018-02-11T03:53:36.640Z,992.87
2018-02-11T03:54:36.612Z,992.83
2018-02-11T03:55:36.589Z,992.8
2018-02-11T03:56:36.566Z,992.79
2018-02-11T03:57:36.544Z,992.78
2018-02-11T03:58:36.518Z,992.71
2018-02-11T03:59:36.494Z,992.66
2018-02-11T04:00:36.471Z,992.66
2018-02-11T04:01:36.448Z,992.67
2018-02-11T04:02:36.425Z,992.7
2018-02-11T04:03:36.405Z,992.66
2018-02-11T04:04:36.381Z,992.65
2018-02-11T04:05:36.354Z,992.61
2018-02-11T04:06:36.331Z,992.69
2018-02-11T04:07:36.309Z,992.61
2018-02-11T04:08:36.284Z,992.64
2018-02-11T04:09:36.260Z,992.63
2018-02-11T04:10:36.238Z,992.59
2018-02-11T04:11:36.215Z,992.63
2018-02-11T04:12:36.191Z,992.71
2018-02-11T04:13:36.166Z,992.55
2018-02-11T04:14:36.143Z,992.65
2018-02-11T04:15:36.121Z,992.64
2018-02-11T04:16:36.096Z,992.49
2018-02-11T04:17:36.073Z,992.57
2018-02-11T04:18:36.050Z,992.58
2018-02-11T04:19:36.027Z,992.5
2018-02-11T04:20:36.004Z,992.44
2018-02-11T04:21:35.982Z,992.49
2018-02-11T04:22:35.962Z,992.42
2018-02-11T04:23:35.986Z,992.4
2018-02-11T04:24:35.911Z,992.38
2018-02-11T04:25:35.887Z,992.35
2018-02-11T04:26:35.863Z,992.37
2018-02-11T04:27:35.842Z,992.31
2018-02-11T04:28:35.816Z,992.28
2018-02-11T04:29:35.797Z,992.27
2018-02-11T04:30:35.773Z,992.28
2018-02-11T04:31:35.750Z,992.35
2018-02-11T04:32:35.722Z,992.17
2018-02-11T04:33:35.699Z,992.12
2018-02-11T04:34:35.676Z,992.16
2018-02-11T04:35:35.654Z,992.17
2018-02-11T04:36:35.629Z,992.14
2018-02-11T04:37:35.605Z,992.06
2018-02-11T04:38:35.630Z,992.09
2018-02-11T04:39:35.556Z,992.1
2018-02-11T04:40:35.537Z,992.02
2018-02-11T04:41:35.514Z,991.92
2018-02-11T04:42:35.488Z,991.9
2018-02-11T04:43:35.462Z,991.87
2018-02-11T04:44:35.440Z,991.95
2018-02-11T04:45:35.416Z,991.91
2018-02-11T04:46:35.394Z,991.94
2018-02-11T04:47:35.369Z,991.89
2018-02-11T04:48:35.346Z,991.87
2018-02-11T04:49:35.321Z,991.93
2018-02-11T04:50:35.297Z,991.8
2018-02-11T04:51:35.275Z,991.8
2018-02-11T04:52:35.255Z,991.82
2018-02-11T04:53:35.229Z,991.84
2018-02-11T04:54:35.203Z,991.74
2018-02-11T04:55:35.180Z,991.82
2018-02-11T04:56:35.155Z,991.82
2018-02-11T04:57:35.132Z,991.75
2018-02-11T04:58:35.116Z,991.66
2018-02-11T04:59:35.085Z,991.7
2018-02-11T05:00:35.062Z,991.66
2018-02-11T05:01:35.037Z,991.45
2018-02-11T05:02:35.018Z,991.49
2018-02-11T05:03:34.989Z,991.37
2018-02-11T05:04:34.965Z,991.34
2018-02-11T05:05:34.941Z,991.35
2018-02-11T05:06:34.921Z,991.36
2018-02-11T05:07:34.894Z,991.35
2018-02-11T05:08:34.874Z,991.39
2018-02-11T05:09:34.849Z,991.36
2018-02-11T05:10:34.824Z,991.3
2018-02-11T05:11:34.798Z,991.22
2018-02-11T05:12:34.978Z,991.26
2018-02-11T05:13:34.752Z,991.33
2018-02-11T05:14:34.728Z,991.21
2018-02-11T05:15:34.703Z,991.22
2018-02-11T05:16:34.680Z,991.25
2018-02-11T05:17:34.656Z,991.17
2018-02-11T05:18:34.632Z,991.18
2018-02-11T05:19:34.609Z,991.14
2018-02-11T05:20:34.587Z,991.19
2018-02-11T05:21:34.562Z,991.15
2018-02-11T05:22:34.536Z,991.15
2018-02-11T05:23:34.513Z,991.11
2018-02-11T05:24:34.498Z,991.09
2018-02-11T05:25:34.468Z,991.11
2018-02-11T05:26:34.442Z,991.11
2018-02-11T05:27:34.420Z,991.07
2018-02-11T05:28:34.393Z,991.1
2018-02-11T05:29:34.371Z,991.06
2018-02-11T05:30:34.346Z,991.14
2018-02-11T05:31:34.328Z,991.05
2018-02-11T05:32:34.300Z,991.03
2018-02-11T05:33:34.277Z,991.08
2018-02-11T05:34:34.259Z,991.09
2018-02-11T05:35:34.232Z,991.03
2018-02-11T05:36:34.203Z,990.98
2018-02-11T05:37:34.180Z,991.03
2018-02-11T05:38:34.154Z,991.03
2018-02-11T05:39:34.181Z,990.93
2018-02-11T05:40:34.106Z,990.9
2018-02-11T05:41:34.084Z,990.9
2018-02-11T05:42:34.060Z,990.93
2018-02-11T05:43:34.038Z,990.87
2018-02-11T05:44:34.012Z,990.82
2018-02-11T05:45:33.987Z,990.87
2018-02-11T05:46:33.963Z,990.68
2018-02-11T05:47:33.940Z,990.69
2018-02-11T05:48:33.916Z,990.68
2018-02-11T05:49:33.892Z,990.63
2018-02-11T05:50:33.869Z,990.62
2018-02-11T05:51:33.845Z,990.65
2018-02-11T05:52:33.820Z,990.56
2018-02-11T05:53:33.795Z,990.63
2018-02-11T05:54:33.796Z,990.66
2018-02-11T05:55:33.748Z,990.65
2018-02-11T05:56:33.724Z,990.72
2018-02-11T05:57:33.701Z,990.69
2018-02-11T05:58:33.679Z,990.66
2018-02-11T05:59:33.652Z,990.61
2018-02-11T06:00:33.628Z,990.52
2018-02-11T06:01:33.606Z,990.57
2018-02-11T06:02:33.580Z,990.58
2018-02-11T06:03:33.557Z,990.58
2018-02-11T06:04:33.532Z,990.47
2018-02-11T06:05:33.513Z,990.54
2018-02-11T06:06:33.483Z,990.41
2018-02-11T06:07:33.461Z,990.44
2018-02-11T06:08:33.441Z,990.44
2018-02-11T06:09:33.414Z,990.4
2018-02-11T06:10:33.391Z,990.41
2018-02-11T06:11:33.369Z,990.43
2018-02-11T06:12:33.343Z,990.34
2018-02-11T06:13:33.352Z,990.36
2018-02-11T06:14:33.295Z,990.36
2018-02-11T06:15:33.270Z,990.38
2018-02-11T06:16:33.252Z,990.36
2018-02-11T06:17:33.222Z,990.32
2018-02-11T06:18:33.199Z,990.4
2018-02-11T06:19:33.176Z,990.35
2018-02-11T06:20:33.156Z,990.37
2018-02-11T06:21:33.129Z,990.43
2018-02-11T06:22:33.105Z,990.33
2018-02-11T06:23:33.097Z,990.27
2018-02-11T06:24:33.057Z,990.4
2018-02-11T06:25:33.035Z,990.46
2018-02-11T06:26:33.010Z,990.37
2018-02-11T06:27:32.988Z,990.25
2018-02-11T06:28:32.968Z,990.31
2018-02-11T06:29:32.940Z,990.29
2018-02-11T06:30:32.967Z,990.35
2018-02-11T06:31:32.890Z,990.39
2018-02-11T06:32:32.866Z,990.31
2018-02-11T06:33:32.844Z,990.37
2018-02-11T06:34:32.821Z,990.37
2018-02-11T06:35:32.796Z,990.38
2018-02-11T06:36:32.774Z,990.3
2018-02-11T06:37:32.748Z,990.27
2018-02-11T06:38:32.726Z,990.3
2018-02-11T06:39:32.702Z,990.23
2018-02-11T06:40:32.683Z,990.16
2018-02-11T06:41:32.656Z,990.2
2018-02-11T06:42:32.630Z,990.14
2018-02-11T06:43:32.607Z,990.17
2018-02-11T06:44:32.584Z,990.15
2018-02-11T06:45:32.563Z,990.12
2018-02-11T06:46:32.661Z,990.15
2018-02-11T06:47:32.521Z,990.02
2018-02-11T06:48:32.489Z,990.17
2018-02-11T06:49:32.465Z,990.05
2018-02-11T06:50:32.441Z,990.01
2018-02-11T06:51:32.418Z,990.09
2018-02-11T06:52:32.397Z,990.13
2018-02-11T06:53:32.370Z,990.16
2018-02-11T06:54:32.346Z,990.24
2018-02-11T06:55:32.331Z,990.16
2018-02-11T06:56:32.299Z,990.26
2018-02-11T06:57:32.281Z,990.25
2018-02-11T06:58:32.251Z,990.25
2018-02-11T06:59:32.232Z,990.4
2018-02-11T07:00:32.204Z,990.34
2018-02-11T07:01:32.181Z,990.21
2018-02-11T07:02:32.158Z,990.18
2018-02-11T07:03:32.135Z,990.33
2018-02-11T07:04:32.110Z,990.25
2018-02-11T07:05:32.087Z,990.33
2018-02-11T07:06:32.066Z,990.33
2018-02-11T07:07:32.040Z,990.35
2018-02-11T07:08:32.018Z,990.29
2018-02-11T07:09:31.993Z,990.31
2018-02-11T07:10:31.969Z,990.35
2018-02-11T07:11:31.946Z,990.35
2018-02-11T07:12:31.924Z,990.43
2018-02-11T07:13:31.899Z,990.32
2018-02-11T07:14:31.875Z,990.43
2018-02-11T07:15:31.850Z,990.36
2018-02-11T07:16:31.826Z,990.41
2018-02-11T07:17:31.804Z,990.51
2018-02-11T07:18:31.782Z,990.41
2018-02-11T07:19:31.758Z,990.31
2018-02-11T07:20:31.732Z,990.38
2018-02-11T07:21:31.762Z,990.45
2018-02-11T07:22:31.689Z,990.36
2018-02-11T07:23:31.662Z,990.43
2018-02-11T07:24:31.638Z,990.42
2018-02-11T07:25:31.616Z,990.35
2018-02-11T07:26:31.593Z,990.36
2018-02-11T07:27:31.568Z,990.5
2018-02-11T07:28:31.544Z,990.39
2018-02-11T07:29:31.521Z,990.44
2018-02-11T07:30:31.499Z,990.73
2018-02-11T07:31:31.473Z,990.44
2018-02-11T07:32:31.450Z,990.53
2018-02-11T07:33:31.426Z,990.49
2018-02-11T07:34:31.433Z,990.41
2018-02-11T07:35:31.379Z,990.39
2018-02-11T07:36:31.356Z,990.49
2018-02-11T07:37:31.334Z,990.45
2018-02-11T07:38:31.314Z,990.37
2018-02-11T07:39:31.289Z,990.38
2018-02-11T07:40:31.262Z,990.36
2018-02-11T07:41:31.239Z,990.38
2018-02-11T07:42:31.216Z,990.43
2018-02-11T07:43:31.191Z,990.35
2018-02-11T07:44:31.167Z,990.33
2018-02-11T07:45:31.143Z,990.36
2018-02-11T07:46:31.120Z,990.39
2018-02-11T07:47:31.096Z,990.36
2018-02-11T07:48:31.075Z,990.4
2018-02-11T07:49:31.051Z,990.56
2018-02-11T07:50:31.028Z,990.51
2018-02-11T07:51:31.004Z,990.5
2018-02-11T07:52:30.980Z,990.45
2018-02-11T07:53:30.957Z,990.4
2018-02-11T07:54:30.941Z,990.48
2018-02-11T07:55:30.910Z,990.45
2018-02-11T07:56:30.885Z,990.47
2018-02-11T07:57:30.864Z,990.55
2018-02-11T07:58:30.841Z,990.6
2018-02-11T07:59:30.815Z,990.53
2018-02-11T08:00:30.794Z,990.55
2018-02-11T08:01:30.769Z,990.53
2018-02-11T08:02:30.745Z,990.6
2018-02-11T08:03:30.722Z,990.54
2018-02-11T08:04:30.738Z,990.6
2018-02-11T08:05:30.676Z,990.6
2018-02-11T08:06:30.651Z,990.59
2018-02-11T08:07:30.631Z,990.62
2018-02-11T08:08:30.604Z,990.63
2018-02-11T08:09:30.584Z,990.6
2018-02-11T08:10:30.560Z,990.59
2018-02-11T08:11:30.534Z,990.64
2018-02-11T08:12:30.511Z,990.6
2018-02-11T08:13:30.488Z,990.67
2018-02-11T08:14:30.467Z,990.56
2018-02-11T08:15:30.439Z,990.67
2018-02-11T08:16:30.416Z,990.77
2018-02-11T08:17:30.392Z,990.7
2018-02-11T08:18:30.372Z,990.65
2018-02-11T08:19:30.346Z,990.64
2018-02-11T08:20:30.322Z,990.68
2018-02-11T08:21:30.299Z,990.66
2018-02-11T08:22:30.325Z,990.74
2018-02-11T08:23:30.253Z,990.67
2018-02-11T08:24:30.230Z,990.75
2018-02-11T08:25:30.205Z,990.73
2018-02-11T08:26:30.184Z,990.78
2018-02-11T08:27:30.161Z,990.67
2018-02-11T08:28:30.134Z,990.69
2018-02-11T08:29:30.112Z,990.78
2018-02-11T08:30:30.089Z,990.77
2018-02-11T08:31:30.065Z,990.79
2018-02-11T08:32:30.041Z,990.73
2018-02-11T08:33:30.019Z,990.71
2018-02-11T08:34:29.994Z,990.71
2018-02-11T08:35:29.973Z,990.68
2018-02-11T08:36:29.950Z,990.64
2018-02-11T08:37:29.928Z,990.63
2018-02-11T08:38:29.903Z,990.66
2018-02-11T08:39:29.883Z,990.7
2018-02-11T08:40:29.859Z,990.7
2018-02-11T08:41:29.836Z,990.8
2018-02-11T08:42:29.811Z,990.69
2018-02-11T08:43:29.787Z,990.69
2018-02-11T08:44:29.764Z,990.71
2018-02-11T08:45:29.742Z,990.74
2018-02-11T08:46:29.719Z,990.8
2018-02-11T08:47:29.695Z,990.79
2018-02-11T08:48:29.670Z,990.78
2018-02-11T08:49:29.653Z,990.73
2018-02-11T08:50:29.623Z,990.73
2018-02-11T08:51:29.599Z,990.75
2018-02-11T08:52:29.583Z,990.78
2018-02-11T08:53:29.553Z,990.68
2018-02-11T08:54:29.532Z,990.75
2018-02-11T08:55:29.509Z,990.76
2018-02-11T08:56:29.488Z,990.91
2018-02-11T08:57:29.463Z,990.7
2018-02-11T08:58:29.440Z,990.68
2018-02-11T08:59:29.416Z,990.84
2018-02-11T09:00:29.393Z,990.75
2018-02-11T09:01:29.370Z,990.71
2018-02-11T09:02:29.348Z,990.67
2018-02-11T09:03:29.330Z,990.75
2018-02-11T09:04:29.305Z,990.8
2018-02-11T09:05:29.278Z,990.77
2018-02-11T09:06:29.253Z,990.79
2018-02-11T09:07:29.232Z,990.7
2018-02-11T09:08:29.209Z,990.75
2018-02-11T09:09:29.185Z,990.77
2018-02-11T09:10:29.162Z,990.72
2018-02-11T09:11:29.140Z,990.68
2018-02-11T09:12:29.116Z,990.7
2018-02-11T09:13:29.295Z,990.73
2018-02-11T09:14:29.072Z,990.81
2018-02-11T09:15:29.048Z,990.85
2018-02-11T09:16:29.036Z,990.75
2018-02-11T09:17:29.007Z,990.71
2018-02-11T09:18:28.980Z,990.67
2018-02-11T09:19:28.958Z,990.66
2018-02-11T09:20:28.932Z,990.71
2018-02-11T09:21:28.910Z,990.71
2018-02-11T09:22:28.888Z,990.66
2018-02-11T09:23:28.913Z,990.58
2018-02-11T09:24:28.842Z,990.71
2018-02-11T09:25:28.821Z,990.6
2018-02-11T09:26:28.797Z,990.66
2018-02-11T09:27:28.784Z,990.68
2018-02-11T09:28:28.750Z,990.62
2018-02-11T09:29:28.727Z,990.66
2018-02-11T09:30:28.709Z,990.65
2018-02-11T09:31:28.689Z,990.71
2018-02-11T09:32:28.661Z,990.68
2018-02-11T09:33:28.691Z,990.7
2018-02-11T09:34:28.622Z,990.68
2018-02-11T09:35:28.595Z,990.71
2018-02-11T09:36:28.573Z,990.59
2018-02-11T09:37:28.551Z,990.72
2018-02-11T09:38:28.526Z,990.68
2018-02-11T09:39:28.504Z,990.61
2018-02-11T09:40:28.482Z,990.67
2018-02-11T09:41:28.457Z,990.67
2018-02-11T09:42:28.437Z,990.69
2018-02-11T09:43:28.418Z,990.77
2018-02-11T09:44:28.393Z,990.71
2018-02-11T09:45:28.370Z,990.78
2018-02-11T09:46:28.346Z,990.78
2018-02-11T09:47:28.328Z,990.66
2018-02-11T09:48:28.308Z,990.66
2018-02-11T09:49:28.280Z,990.74
2018-02-11T09:50:28.260Z,990.7
2018-02-11T09:51:28.243Z,990.67
2018-02-11T09:52:28.214Z,990.85
2018-02-11T09:53:28.191Z,990.84
2018-02-11T09:54:28.170Z,990.68
2018-02-11T09:55:28.155Z,990.74
2018-02-11T09:56:28.128Z,990.76
2018-02-11T09:57:28.108Z,990.81
2018-02-11T09:58:28.081Z,990.88
2018-02-11T09:59:28.060Z,990.91
2018-02-11T10:00:28.036Z,990.9
2018-02-11T10:01:28.014Z,990.95
2018-02-11T10:02:27.992Z,991.03
2018-02-11T10:03:27.973Z,990.87
2018-02-11T10:04:27.953Z,990.88
2018-02-11T10:05:27.926Z,990.87
2018-02-11T10:06:27.903Z,990.87
2018-02-11T10:07:27.880Z,990.89
2018-02-11T10:08:27.859Z,990.92
2018-02-11T10:09:27.836Z,990.94
2018-02-11T10:10:27.814Z,990.95
2018-02-11T10:11:27.797Z,990.96
2018-02-11T10:12:27.770Z,990.95
2018-02-11T10:13:27.748Z,990.91
2018-02-11T10:14:27.726Z,990.89
2018-02-11T10:15:27.703Z,990.94
2018-02-11T10:16:27.682Z,990.95
2018-02-11T10:17:27.660Z,990.91
2018-02-11T10:18:27.639Z,990.89
2018-02-11T10:19:27.616Z,990.92
2018-02-11T10:20:27.596Z,990.91
2018-02-11T10:21:27.576Z,990.96
2018-02-11T10:22:27.551Z,990.95
2018-02-11T10:23:27.528Z,990.93
2018-02-11T10:24:27.511Z,990.96
2018-02-11T10:25:27.492Z,990.99
2018-02-11T10:26:27.465Z,990.92
2018-02-11T10:27:27.488Z,990.97
2018-02-11T10:28:27.427Z,990.97
2018-02-11T10:29:27.404Z,990.95
2018-02-11T10:30:27.381Z,990.97
2018-02-11T10:31:27.363Z,990.96
2018-02-11T10:32:27.341Z,991.05
2018-02-11T10:33:27.320Z,990.98
2018-02-11T10:34:27.300Z,991.07
2018-02-11T10:35:27.282Z,991.08
2018-02-11T10:36:27.258Z,991.02
2018-02-11T10:37:27.238Z,990.96
2018-02-11T10:38:27.221Z,991.04
2018-02-11T10:39:27.250Z,991.08
2018-02-11T10:40:27.184Z,991.1
2018-02-11T10:41:27.164Z,991.05
2018-02-11T10:42:27.143Z,991.11
2018-02-11T10:43:27.125Z,991.11
2018-02-11T10:44:27.105Z,991.07
2018-02-11T10:45:27.087Z,991.05
2018-02-11T10:46:27.070Z,991.06
2018-02-11T10:47:27.052Z,991.05
2018-02-11T10:48:27.034Z,991.03
2018-02-11T10:49:27.015Z,991.02
2018-02-11T10:50:26.998Z,991.01
2018-02-11T10:51:26.980Z,991
2018-02-11T10:52:26.963Z,991.06
2018-02-11T10:53:26.946Z,991.04
2018-02-11T10:54:26.969Z,991.05
2018-02-11T10:55:26.911Z,991.02
2018-02-11T10:56:26.892Z,990.97
2018-02-11T10:57:26.876Z,991.08
2018-02-11T10:58:26.860Z,990.94
2018-02-11T10:59:26.841Z,991.02
2018-02-11T11:00:26.826Z,990.99
2018-02-11T11:01:26.846Z,990.99
2018-02-11T11:02:26.788Z,991.01
2018-02-11T11:03:26.772Z,991.01
2018-02-11T11:04:26.759Z,991.02
2018-02-11T11:05:26.745Z,990.99
2018-02-11T11:06:26.723Z,991.01
2018-02-11T11:07:26.704Z,991.07
2018-02-11T11:08:26.699Z,991.12
2018-02-11T11:09:26.670Z,991.06
2018-02-11T11:10:26.658Z,991.2
2018-02-11T11:11:26.637Z,991.06
2018-02-11T11:12:26.620Z,991.09
2018-02-11T11:13:26.805Z,991.09
2018-02-11T11:14:26.588Z,991.12
2018-02-11T11:15:26.569Z,991.15
2018-02-11T11:16:26.552Z,991.02
2018-02-11T11:17:26.539Z,991.02
2018-02-11T11:18:26.521Z,991.06
2018-02-11T11:19:26.501Z,991.07
2018-02-11T11:20:26.536Z,991.04
2018-02-11T11:21:26.467Z,991.04
2018-02-11T11:22:26.449Z,991.06
2018-02-11T11:23:26.433Z,991.07
2018-02-11T11:24:26.413Z,991.08
2018-02-11T11:25:26.397Z,991.04
2018-02-11T11:26:26.379Z,991.08
2018-02-11T11:27:26.360Z,991.08
2018-02-11T11:28:26.342Z,991.06
2018-02-11T11:29:26.326Z,991.12
2018-02-11T11:30:26.305Z,991.11
2018-02-11T11:31:26.292Z,991.13
2018-02-11T11:32:26.268Z,991.09
2018-02-11T11:33:26.249Z,991.13
2018-02-11T11:34:26.231Z,991.11
2018-02-11T11:35:26.212Z,991.18
2018-02-11T11:36:26.194Z,991.17
2018-02-11T11:37:26.174Z,991.19
2018-02-11T11:38:26.158Z,991.16
2018-02-11T11:39:26.136Z,991.18
2018-02-11T11:40:26.118Z,991.23
2018-02-11T11:41:26.099Z,991.23
2018-02-11T11:42:26.079Z,991.14
2018-02-11T11:43:26.060Z,991.28
2018-02-11T11:44:26.105Z,991.24
2018-02-11T11:45:26.027Z,991.14
2018-02-11T11:46:26.004Z,991.15
2018-02-11T11:47:25.986Z,991.06
2018-02-11T11:48:25.967Z,991.11
2018-02-11T11:49:25.946Z,991.01
2018-02-11T11:50:25.925Z,991.15
2018-02-11T11:51:25.912Z,991.13
2018-02-11T11:52:25.893Z,991.16
2018-02-11T11:53:25.867Z,991.16
2018-02-11T11:54:25.851Z,991.12
2018-02-11T11:55:25.828Z,991.15
2018-02-11T11:56:25.846Z,991.21
2018-02-11T11:57:25.793Z,991.13
2018-02-11T11:58:25.771Z,991.21
2018-02-11T11:59:25.752Z,991.2
2018-02-11T12:00:25.732Z,991.25
2018-02-11T12:01:25.714Z,991.14
2018-02-11T12:02:25.696Z,991.22
2018-02-11T12:03:25.674Z,991.17
2018-02-11T12:04:25.655Z,991.22
2018-02-11T12:05:25.632Z,991.24
2018-02-11T12:06:25.616Z,991.26
2018-02-11T12:07:25.595Z,991.23
2018-02-11T12:08:25.576Z,991.21
2018-02-11T12:09:25.561Z,991.23
2018-02-11T12:10:25.537Z,991.17
2018-02-11T12:11:25.514Z,991.19
2018-02-11T12:12:25.500Z,991.18
2018-02-11T12:13:25.476Z,991.22
2018-02-11T12:14:25.462Z,991.2
2018-02-11T12:15:25.435Z,991.26
2018-02-11T12:16:25.418Z,991.2
2018-02-11T12:17:25.401Z,991.2
2018-02-11T12:18:25.378Z,991.18
2018-02-11T12:19:25.363Z,991.2
2018-02-11T12:20:25.345Z,991.22
2018-02-11T12:21:25.319Z,991.21
2018-02-11T12:22:25.299Z,991.26
2018-02-11T12:23:25.287Z,991.24
2018-02-11T12:24:25.265Z,991.27
2018-02-11T12:25:25.248Z,991.24
2018-02-11T12:26:25.228Z,991.29
2018-02-11T12:27:25.203Z,991.3
2018-02-11T12:28:25.191Z,991.33
2018-02-11T12:29:25.175Z,991.26
2018-02-11T12:30:25.153Z,991.29